createdAt,value
2022-12-10T00:01:33.517Z,12.80
2022-12-10T00:06:34.389Z,11.13
2022-12-10T00:11:32.755Z,11.20
2022-12-10T00:16:34.266Z,12.40
2022-12-10T00:21:34.364Z,10.93
2022-12-10T00:26:34.561Z,11.00
2022-12-10T00:31:36.458Z,10.93
2022-12-10T00:36:37.922Z,11.33
2022-12-10T00:41:35.972Z,13.27
2022-12-10T00:46:35.440Z,11.33
2022-12-10T00:51:33.748Z,11.40
2022-12-10T00:56:34.375Z,10.73
2022-12-10T01:01:35.786Z,12.20
2022-12-10T01:06:36.070Z,12.30
2022-12-10T01:11:38.011Z,11.70
2022-12-10T01:16:38.341Z,11.20
2022-12-10T01:21:36.984Z,11.83
2022-12-10T01:26:36.692Z,12.23
2022-12-10T01:31:38.124Z,13.13
2022-12-10T01:36:40.044Z,12.83
2022-12-10T01:41:40.157Z,12.93
2022-12-10T01:46:41.463Z,11.40
2022-12-10T01:51:41.756Z,11.03
2022-12-10T01:56:45.087Z,11.20
2022-12-10T02:01:54.098Z,11.97
2022-12-10T02:06:59.527Z,12.43
2022-12-10T02:12:08.863Z,11.90
2022-12-10T02:17:17.101Z,11.90
2022-12-10T02:22:16.723Z,11.47
2022-12-10T02:27:20.759Z,11.67
2022-12-10T02:32:24.541Z,11.93
2022-12-10T02:37:28.908Z,11.37
2022-12-10T02:42:32.313Z,12.20
2022-12-10T02:47:32.460Z,12.27
2022-12-10T02:52:30.825Z,11.27
2022-12-10T02:57:38.655Z,11.27
2022-12-10T03:02:57.887Z,11.57
2022-12-10T03:08:00.782Z,11.63
2022-12-10T03:13:02.571Z,11.60
2022-12-10T03:18:05.091Z,11.10
2022-12-10T03:23:05.513Z,11.70
2022-12-10T03:28:03.663Z,12.00
2022-12-10T03:33:03.935Z,11.13
2022-12-10T03:38:02.323Z,13.43
2022-12-10T03:43:00.393Z,12.70
2022-12-10T03:47:58.446Z,11.73
2022-12-10T03:52:57.863Z,12.83
2022-12-10T03:57:55.908Z,14.50
2022-12-10T04:02:53.921Z,15.67
2022-12-10T04:07:52.028Z,13.70
2022-12-10T04:13:12.059Z,12.20
2022-12-10T04:18:10.074Z,12.53
2022-12-10T04:23:27.424Z,12.90
2022-12-10T04:28:26.935Z,13.87
2022-12-10T04:33:25.041Z,12.87
2022-12-10T04:38:23.130Z,12.73
2022-12-10T04:43:21.146Z,13.17
2022-12-10T04:48:20.521Z,13.80
2022-12-10T04:53:18.529Z,13.67
2022-12-10T04:58:16.588Z,13.70
2022-12-10T05:03:14.598Z,13.70
2022-12-10T05:08:14.029Z,14.13
2022-12-10T05:13:12.578Z,13.90
2022-12-10T05:18:10.654Z,13.83
2022-12-10T05:23:28.000Z,13.57
2022-12-10T05:28:28.635Z,14.33
2022-12-10T05:33:27.343Z,13.07
2022-12-10T05:38:25.387Z,13.80
2022-12-10T05:43:23.645Z,12.93
2022-12-10T05:48:24.567Z,13.80
2022-12-10T05:53:22.586Z,13.40
2022-12-10T05:58:20.623Z,14.07
2022-12-10T06:03:18.637Z,13.70
2022-12-10T06:08:18.040Z,13.57
2022-12-10T06:13:16.137Z,13.17
2022-12-10T06:18:14.154Z,12.17
2022-12-10T06:23:12.172Z,11.67
2022-12-10T06:28:12.551Z,11.30
2022-12-10T06:33:10.540Z,10.67
2022-12-10T06:38:08.539Z,11.20
2022-12-10T06:43:06.579Z,11.73
2022-12-10T06:48:06.325Z,12.20
2022-12-10T06:53:05.105Z,12.90
2022-12-10T06:58:03.139Z,12.30
2022-12-10T07:03:01.151Z,12.60
2022-12-10T07:08:00.641Z,12.23
2022-12-10T07:12:58.705Z,11.63
2022-12-10T07:17:56.758Z,11.40
2022-12-10T07:22:54.817Z,11.67
2022-12-10T07:27:57.722Z,11.40
2022-12-10T07:32:56.070Z,11.73
2022-12-10T07:37:54.126Z,10.03
2022-12-10T07:42:52.115Z,11.93
2022-12-10T07:47:51.516Z,10.90
2022-12-10T07:52:49.531Z,10.00
2022-12-10T07:57:48.026Z,10.33
2022-12-10T08:02:46.112Z,10.50
2022-12-10T08:07:45.620Z,11.07
2022-12-10T08:12:43.926Z,11.50
2022-12-10T08:17:41.934Z,10.37
2022-12-10T08:22:40.467Z,10.83
2022-12-10T08:27:39.885Z,10.50
2022-12-10T08:32:37.946Z,9.50
2022-12-10T08:37:35.983Z,10.20
2022-12-10T08:42:34.003Z,10.33
2022-12-10T08:47:33.688Z,11.40
2022-12-10T08:52:32.122Z,10.90
2022-12-10T08:57:30.122Z,11.57
2022-12-10T09:02:28.235Z,11.03
2022-12-10T09:07:27.832Z,11.17
2022-12-10T09:12:26.123Z,10.70
2022-12-10T09:17:24.188Z,11.27
2022-12-10T09:22:22.232Z,12.13
2022-12-10T09:27:21.729Z,11.40
2022-12-10T09:32:20.242Z,11.70
2022-12-10T09:37:19.253Z,10.80
2022-12-10T09:42:33.333Z,11.40
2022-12-10T09:47:36.438Z,11.57
2022-12-10T09:52:41.502Z,13.60
2022-12-10T09:57:44.506Z,12.80
2022-12-10T10:02:42.630Z,13.37
2022-12-10T10:07:45.579Z,12.70
2022-12-10T10:12:45.381Z,12.20
2022-12-10T10:17:46.529Z,13.00
2022-12-10T10:22:44.585Z,12.37
2022-12-10T10:27:44.012Z,12.70
2022-12-10T10:32:51.625Z,12.60
2022-12-10T10:37:49.743Z,13.40
2022-12-10T10:42:49.246Z,11.40
2022-12-10T10:47:47.274Z,12.77
2022-12-10T10:52:45.290Z,13.43
2022-12-10T10:57:43.502Z,12.87
2022-12-10T11:02:43.974Z,12.57
2022-12-10T11:07:42.933Z,11.03
2022-12-10T11:12:42.073Z,12.30
2022-12-10T11:17:50.940Z,12.50
2022-12-10T11:22:52.138Z,12.47
2022-12-10T11:27:59.164Z,13.33
2022-12-10T11:33:17.611Z,13.43
2022-12-10T11:38:24.146Z,11.37
2022-12-10T11:43:46.285Z,13.40
2022-12-10T11:48:57.862Z,12.77
2022-12-10T11:54:12.701Z,13.27
2022-12-10T11:59:21.872Z,14.40
2022-12-10T12:04:40.364Z,12.87
2022-12-10T12:09:51.703Z,12.57
2022-12-10T12:14:54.567Z,14.13
2022-12-10T12:19:58.930Z,13.40
2022-12-10T12:25:01.392Z,12.47
2022-12-10T12:30:09.448Z,13.33
2022-12-10T12:35:15.224Z,13.23
2022-12-10T12:40:17.430Z,12.53
2022-12-10T12:45:19.563Z,12.67
2022-12-10T12:50:27.620Z,13.13
2022-12-10T12:55:33.743Z,13.23
2022-12-10T13:00:36.824Z,12.83
2022-12-10T13:05:39.635Z,13.10
2022-12-10T13:10:47.069Z,13.47
2022-12-10T13:15:45.466Z,14.50
2022-12-10T13:20:48.241Z,13.60
2022-12-10T13:25:58.929Z,14.97
2022-12-10T13:31:20.542Z,14.00
2022-12-10T13:36:26.087Z,14.87
2022-12-10T13:41:40.668Z,13.97
2022-12-10T13:46:55.174Z,13.10
2022-12-10T13:52:00.101Z,15.60
2022-12-10T13:57:07.640Z,14.93
2022-12-10T14:02:34.788Z,14.77
2022-12-10T14:07:34.514Z,14.70
2022-12-10T14:12:35.595Z,14.80
2022-12-10T14:17:36.590Z,14.47
2022-12-10T14:22:40.251Z,14.70
2022-12-10T14:27:38.437Z,14.57
2022-12-10T14:32:39.091Z,14.63
2022-12-10T14:37:42.024Z,15.33
2022-12-10T14:42:41.118Z,14.97
2022-12-10T14:47:46.800Z,13.77
2022-12-10T14:52:53.560Z,14.90
2022-12-10T14:57:56.114Z,14.77
2022-12-10T15:02:57.335Z,15.77
2022-12-10T15:07:59.501Z,16.80
2022-12-10T15:12:58.156Z,15.20
2022-12-10T15:18:00.749Z,15.50
2022-12-10T15:23:17.850Z,16.07
2022-12-10T15:28:24.888Z,15.83
2022-12-10T15:33:35.019Z,15.40
2022-12-10T15:38:35.203Z,15.03
2022-12-10T15:43:33.208Z,13.83
2022-12-10T15:48:34.051Z,14.90
2022-12-10T15:53:40.138Z,14.03
2022-12-10T15:58:38.177Z,15.10
2022-12-10T16:03:37.815Z,14.90
2022-12-10T16:08:36.571Z,15.30
2022-12-10T16:13:41.230Z,15.77
2022-12-10T16:18:39.634Z,14.93
2022-12-10T16:23:39.416Z,15.27
2022-12-10T16:28:38.799Z,16.13
2022-12-10T16:33:36.833Z,15.40
2022-12-10T16:38:34.882Z,15.50
2022-12-10T16:43:33.718Z,14.70
2022-12-10T16:48:33.097Z,16.33
2022-12-10T16:53:36.347Z,16.53
2022-12-10T16:58:34.425Z,15.13
2022-12-10T17:03:35.132Z,16.13
2022-12-10T17:08:33.313Z,15.87
2022-12-10T17:13:31.894Z,16.30
2022-12-10T17:18:29.950Z,16.63
2022-12-10T17:23:29.409Z,17.90
2022-12-10T17:28:27.487Z,18.83
2022-12-10T17:33:25.751Z,17.57
2022-12-10T17:38:25.557Z,17.37
2022-12-10T17:43:26.114Z,16.13
2022-12-10T17:48:24.111Z,18.87
2022-12-10T17:53:22.161Z,18.20
2022-12-10T17:58:23.963Z,19.60
2022-12-10T18:03:23.476Z,17.80
2022-12-10T18:08:23.774Z,18.40
2022-12-10T18:13:22.241Z,18.40
2022-12-10T18:18:20.359Z,19.83
2022-12-10T18:23:19.730Z,18.57
2022-12-10T18:28:46.019Z,20.43
2022-12-10T18:33:46.570Z,17.70
2022-12-10T18:38:47.015Z,17.80
2022-12-10T18:43:45.447Z,20.07
2022-12-10T18:48:43.491Z,17.13
2022-12-10T18:53:41.787Z,16.77
2022-12-10T18:58:41.178Z,17.03
2022-12-10T19:03:41.974Z,16.40
2022-12-10T19:09:10.088Z,17.30
2022-12-10T19:14:04.393Z,19.33
2022-12-10T19:19:05.223Z,19.87
2022-12-10T19:24:03.268Z,18.90
2022-12-10T19:29:02.765Z,18.47
2022-12-10T19:34:02.267Z,19.73
2022-12-10T19:39:00.838Z,18.93
2022-12-10T19:43:59.022Z,18.07
2022-12-10T19:48:57.057Z,18.93
2022-12-10T19:53:56.475Z,17.37
2022-12-10T19:58:57.366Z,17.23
2022-12-10T20:03:56.361Z,18.13
2022-12-10T20:08:55.814Z,16.67
2022-12-10T20:13:54.022Z,16.30
2022-12-10T20:18:52.682Z,17.63
2022-12-10T20:23:51.226Z,16.97
2022-12-10T20:28:50.715Z,18.00
2022-12-10T20:33:48.969Z,16.60
2022-12-10T20:38:47.046Z,16.33
2022-12-10T20:43:45.737Z,15.77
2022-12-10T20:48:45.231Z,16.40
2022-12-10T20:53:43.401Z,16.17
2022-12-10T20:58:41.892Z,15.40
2022-12-10T21:03:40.283Z,15.37
2022-12-10T21:08:39.706Z,16.23
2022-12-10T21:13:38.081Z,14.40
2022-12-10T21:18:36.286Z,12.93
2022-12-10T21:23:34.568Z,14.07
2022-12-10T21:28:34.278Z,14.17
2022-12-10T21:33:35.591Z,13.67
2022-12-10T21:38:37.546Z,11.90
2022-12-10T21:43:36.949Z,14.20
2022-12-10T21:48:34.985Z,13.67
2022-12-10T21:53:33.052Z,12.80
2022-12-10T21:58:31.092Z,11.27
2022-12-10T22:03:30.651Z,10.90
2022-12-10T22:08:28.725Z,11.13
2022-12-10T22:13:26.781Z,10.17
2022-12-10T22:18:24.835Z,11.20
2022-12-10T22:23:24.400Z,10.90
2022-12-10T22:28:22.505Z,12.00
2022-12-10T22:33:20.537Z,12.93
2022-12-10T22:38:18.746Z,11.20
2022-12-10T22:43:49.064Z,11.20
2022-12-10T22:48:36.159Z,10.40
2022-12-10T22:53:35.696Z,11.20
2022-12-10T22:58:35.259Z,13.80
2022-12-10T23:03:33.499Z,13.40
2022-12-10T23:08:31.876Z,12.87
2022-12-10T23:13:33.483Z,10.97
2022-12-10T23:18:37.231Z,11.70
2022-12-10T23:23:35.274Z,13.13
2022-12-10T23:28:33.301Z,12.30
2022-12-10T23:33:31.377Z,12.70
2022-12-10T23:38:30.782Z,14.33
2022-12-10T23:43:29.026Z,12.30
2022-12-10T23:48:27.127Z,13.67
2022-12-10T23:53:25.860Z,11.93
2022-12-10T23:58:25.883Z,13.30
